EWG129 EPKK-LOWS
Flight info
| Callsign | EWG129 |
|---|---|
| Flight time | 0h 59m |
| Altitude | 36000 |
| Route | TUSIN DCT LANUX DCT LNZ DCT MATIG MATIG2R |
| Aircraft | A320/M-SDE3FGHIRWY/LB1 |
Departure
| Time | 2026-05-01 14:04 |
|---|---|
| Airport | Kraków John Paul II International Airport (EPKK) |
Arrival
| Time | 2026-05-01 15:04 |
|---|---|
| Airport | Salzburg Airport (LOWS) |
| Time | Latitude | Longitude | Altitude | Speed | Heading |
|---|---|---|---|---|---|
| 2026-05-01 13:14 | 50.07413 | 19.80458 | 800 ft | 0 kts | 107° |
| 2026-05-01 13:48 | 50.07413 | 19.80457 | 800 ft | 0 kts | 107° |
| 2026-05-01 13:48 | 50.07413 | 19.80458 | 800 ft | 0 kts | 107° |
| 2026-05-01 13:48 | 50.07413 | 19.80457 | 800 ft | 0 kts | 107° |
| 2026-05-01 13:53 | 50.07416 | 19.80442 | 800 ft | 4 kts | 107° |
| 2026-05-01 13:53 | 50.07425 | 19.80403 | 800 ft | 4 kts | 125° |
| 2026-05-01 13:54 | 50.07439 | 19.80379 | 800 ft | 4 kts | 124° |
| 2026-05-01 13:54 | 50.07446 | 19.80343 | 800 ft | 4 kts | 76° |
| 2026-05-01 13:54 | 50.07439 | 19.80310 | 800 ft | 1 kts | 77° |
| 2026-05-01 13:59 | 50.07440 | 19.80314 | 800 ft | 3 kts | 77° |
| 2026-05-01 13:59 | 50.07455 | 19.80360 | 800 ft | 5 kts | 49° |
| 2026-05-01 13:59 | 50.07478 | 19.80380 | 800 ft | 3 kts | 22° |
| 2026-05-01 14:00 | 50.07502 | 19.80392 | 800 ft | 6 kts | 17° |
| 2026-05-01 14:00 | 50.07543 | 19.80412 | 800 ft | 6 kts | 17° |
| 2026-05-01 14:00 | 50.07581 | 19.80422 | 800 ft | 5 kts | 359° |
| 2026-05-01 14:00 | 50.07636 | 19.80406 | 800 ft | 12 kts | 347° |
| 2026-05-01 14:01 | 50.07710 | 19.80381 | 800 ft | 11 kts | 347° |
| 2026-05-01 14:01 | 50.07790 | 19.80355 | 800 ft | 13 kts | 348° |
| 2026-05-01 14:01 | 50.07843 | 19.80337 | 800 ft | 5 kts | 348° |
| 2026-05-01 14:01 | 50.07846 | 19.80336 | 800 ft | 0 kts | 348° |
| 2026-05-01 14:02 | 50.07884 | 19.80323 | 800 ft | 10 kts | 347° |
| 2026-05-01 14:03 | 50.07961 | 19.80297 | 800 ft | 13 kts | 347° |
| 2026-05-01 14:03 | 50.08011 | 19.80203 | 800 ft | 12 kts | 265° |
| 2026-05-01 14:03 | 50.08005 | 19.80151 | 801 ft | 0 kts | 257° |
| 2026-05-01 14:03 | 50.08003 | 19.80131 | 801 ft | 11 kts | 258° |
| 2026-05-01 14:04 | 50.07943 | 19.79694 | 801 ft | 78 kts | 257° |
| 2026-05-01 14:04 | 50.07779 | 19.78523 | 801 ft | 141 kts | 258° |
| 2026-05-01 14:04 | 50.07583 | 19.76846 | 1105 ft | 160 kts | 262° |
| 2026-05-01 14:04 | 50.07356 | 19.75141 | 1744 ft | 163 kts | 261° |
| 2026-05-01 14:05 | 50.07082 | 19.73359 | 2233 ft | 180 kts | 261° |
| 2026-05-01 14:05 | 50.06789 | 19.71331 | 2584 ft | 204 kts | 261° |
| 2026-05-01 14:05 | 50.06478 | 19.69027 | 2897 ft | 231 kts | 261° |
| 2026-05-01 14:05 | 50.06159 | 19.66433 | 3342 ft | 257 kts | 262° |
| 2026-05-01 14:06 | 50.05802 | 19.63601 | 3967 ft | 272 kts | 261° |
| 2026-05-01 14:06 | 50.05388 | 19.60698 | 4837 ft | 278 kts | 259° |
| 2026-05-01 14:06 | 50.04921 | 19.57767 | 5760 ft | 281 kts | 257° |
| 2026-05-01 14:06 | 50.04378 | 19.54891 | 6838 ft | 276 kts | 256° |
| 2026-05-01 14:07 | 50.03811 | 19.52019 | 7660 ft | 281 kts | 256° |
| 2026-05-01 14:07 | 50.03228 | 19.49079 | 8388 ft | 288 kts | 256° |
| 2026-05-01 14:07 | 50.02629 | 19.46061 | 9152 ft | 296 kts | 256° |
| 2026-05-01 14:08 | 50.01414 | 19.39793 | 10511 ft | 313 kts | 257° |
| 2026-05-01 14:08 | 50.00756 | 19.36424 | 10806 ft | 335 kts | 257° |
| 2026-05-01 14:08 | 50.00056 | 19.32916 | 11400 ft | 344 kts | 256° |
| 2026-05-01 14:08 | 49.99336 | 19.29333 | 12091 ft | 350 kts | 256° |
| 2026-05-01 14:09 | 49.98605 | 19.25698 | 12781 ft | 356 kts | 256° |
| 2026-05-01 14:09 | 49.97863 | 19.22001 | 13477 ft | 361 kts | 256° |
| 2026-05-01 14:09 | 49.97113 | 19.18255 | 14157 ft | 366 kts | 257° |
| 2026-05-01 14:09 | 49.96351 | 19.14449 | 14771 ft | 371 kts | 256° |
| 2026-05-01 14:10 | 49.95580 | 19.10598 | 15397 ft | 375 kts | 256° |
| 2026-05-01 14:10 | 49.94802 | 19.06717 | 16021 ft | 378 kts | 256° |
| 2026-05-01 14:10 | 49.94015 | 19.02798 | 16648 ft | 382 kts | 256° |
| 2026-05-01 14:10 | 49.93218 | 18.98835 | 17256 ft | 386 kts | 256° |
| 2026-05-01 14:11 | 49.92413 | 18.94837 | 17837 ft | 390 kts | 256° |
| 2026-05-01 14:11 | 49.90774 | 18.86732 | 19045 ft | 398 kts | 256° |
| 2026-05-01 14:11 | 49.89939 | 18.82617 | 19567 ft | 401 kts | 256° |
| 2026-05-01 14:12 | 49.89091 | 18.78454 | 20089 ft | 405 kts | 256° |
| 2026-05-01 14:12 | 49.88238 | 18.74271 | 20608 ft | 409 kts | 256° |
| 2026-05-01 14:12 | 49.87374 | 18.70054 | 21126 ft | 412 kts | 256° |
| 2026-05-01 14:12 | 49.86500 | 18.65805 | 21638 ft | 416 kts | 256° |
| 2026-05-01 14:13 | 49.85616 | 18.61511 | 22141 ft | 420 kts | 256° |
| 2026-05-01 14:13 | 49.85025 | 18.58649 | 22486 ft | 422 kts | 254° |
| 2026-05-01 14:13 | 49.83451 | 18.53003 | 23166 ft | 430 kts | 247° |
| 2026-05-01 14:13 | 49.82168 | 18.48810 | 23679 ft | 433 kts | 247° |
| 2026-05-01 14:14 | 49.80869 | 18.44577 | 24144 ft | 437 kts | 247° |
| 2026-05-01 14:14 | 49.79558 | 18.40318 | 24567 ft | 440 kts | 247° |
| 2026-05-01 14:14 | 49.78236 | 18.36040 | 24993 ft | 442 kts | 246° |
| 2026-05-01 14:14 | 49.76906 | 18.31747 | 25464 ft | 443 kts | 246° |
| 2026-05-01 14:15 | 49.75568 | 18.27436 | 25894 ft | 445 kts | 246° |
| 2026-05-01 14:15 | 49.74226 | 18.23106 | 26311 ft | 448 kts | 247° |
| 2026-05-01 14:15 | 49.72894 | 18.18804 | 26713 ft | 450 kts | 247° |
| 2026-05-01 14:15 | 49.71522 | 18.14374 | 27118 ft | 452 kts | 247° |
| 2026-05-01 14:16 | 49.70175 | 18.10039 | 27511 ft | 455 kts | 247° |
| 2026-05-01 14:16 | 49.68801 | 18.05627 | 27892 ft | 457 kts | 246° |
| 2026-05-01 14:16 | 49.67417 | 18.01192 | 28269 ft | 459 kts | 247° |
| 2026-05-01 14:16 | 49.66025 | 17.96736 | 28638 ft | 462 kts | 246° |
| 2026-05-01 14:17 | 49.64625 | 17.92269 | 28998 ft | 464 kts | 246° |
| 2026-05-01 14:17 | 49.63214 | 17.87783 | 29353 ft | 466 kts | 246° |
| 2026-05-01 14:17 | 49.61790 | 17.83267 | 29706 ft | 469 kts | 246° |
| 2026-05-01 14:17 | 49.60362 | 17.78740 | 30059 ft | 471 kts | 246° |
| 2026-05-01 14:18 | 49.58927 | 17.74189 | 30384 ft | 473 kts | 246° |
| 2026-05-01 14:18 | 49.57486 | 17.69625 | 30668 ft | 475 kts | 246° |
| 2026-05-01 14:18 | 49.56036 | 17.65036 | 30947 ft | 477 kts | 246° |
| 2026-05-01 14:18 | 49.55051 | 17.61930 | 31138 ft | 478 kts | 246° |
| 2026-05-01 14:19 | 49.53109 | 17.55827 | 31504 ft | 480 kts | 246° |
| 2026-05-01 14:19 | 49.51632 | 17.51201 | 31797 ft | 481 kts | 246° |
| 2026-05-01 14:19 | 49.50157 | 17.46586 | 32184 ft | 480 kts | 247° |
| 2026-05-01 14:19 | 49.48686 | 17.41983 | 32565 ft | 479 kts | 247° |
| 2026-05-01 14:20 | 49.47218 | 17.37395 | 32940 ft | 478 kts | 247° |
| 2026-05-01 14:20 | 49.44281 | 17.28246 | 33682 ft | 476 kts | 247° |
| 2026-05-01 14:20 | 49.42809 | 17.23693 | 34050 ft | 476 kts | 247° |
| 2026-05-01 14:21 | 49.41337 | 17.19150 | 34360 ft | 474 kts | 247° |
| 2026-05-01 14:21 | 49.39870 | 17.14630 | 34741 ft | 471 kts | 247° |
| 2026-05-01 14:21 | 49.38412 | 17.10143 | 35087 ft | 469 kts | 247° |
| 2026-05-01 14:22 | 49.35513 | 17.01207 | 35653 ft | 467 kts | 247° |
| 2026-05-01 14:22 | 49.34066 | 16.96748 | 35925 ft | 466 kts | 247° |
| 2026-05-01 14:22 | 49.32620 | 16.92300 | 36179 ft | 466 kts | 247° |
| 2026-05-01 14:22 | 49.31172 | 16.87865 | 36307 ft | 464 kts | 247° |
| 2026-05-01 14:23 | 49.28324 | 16.79199 | 36320 ft | 449 kts | 246° |
| 2026-05-01 14:23 | 49.25515 | 16.70665 | 36326 ft | 448 kts | 247° |
| 2026-05-01 14:24 | 49.22718 | 16.62162 | 36326 ft | 447 kts | 247° |
| 2026-05-01 14:24 | 49.19917 | 16.53686 | 36327 ft | 446 kts | 246° |
| 2026-05-01 14:25 | 49.17104 | 16.45231 | 36331 ft | 446 kts | 246° |
| 2026-05-01 14:25 | 49.14276 | 16.36789 | 36352 ft | 446 kts | 246° |
| 2026-05-01 14:26 | 49.10055 | 16.24134 | 36356 ft | 446 kts | 246° |
| 2026-05-01 14:27 | 49.07230 | 16.15705 | 36354 ft | 446 kts | 246° |
| 2026-05-01 14:27 | 49.04385 | 16.07293 | 36359 ft | 446 kts | 246° |
| 2026-05-01 14:28 | 49.00123 | 15.94696 | 36352 ft | 445 kts | 246° |
| 2026-05-01 14:28 | 48.97276 | 15.86320 | 36360 ft | 445 kts | 245° |
| 2026-05-01 14:29 | 48.94427 | 15.77972 | 36365 ft | 444 kts | 245° |
| 2026-05-01 14:30 | 48.88716 | 15.61384 | 36364 ft | 445 kts | 242° |
| 2026-05-01 14:31 | 48.83687 | 15.49491 | 36361 ft | 446 kts | 240° |
| 2026-05-01 14:31 | 48.80012 | 15.41900 | 36351 ft | 448 kts | 230° |
| 2026-05-01 14:32 | 48.75837 | 15.34881 | 36358 ft | 448 kts | 229° |
| 2026-05-01 14:32 | 48.71664 | 15.27881 | 36371 ft | 448 kts | 229° |
| 2026-05-01 14:33 | 48.67477 | 15.20888 | 36366 ft | 448 kts | 229° |
| 2026-05-01 14:33 | 48.63294 | 15.13908 | 36367 ft | 448 kts | 229° |
| 2026-05-01 14:34 | 48.59107 | 15.06932 | 36370 ft | 448 kts | 229° |
| 2026-05-01 14:34 | 48.54869 | 14.99894 | 35552 ft | 462 kts | 229° |
| 2026-05-01 14:34 | 48.52696 | 14.96300 | 34920 ft | 464 kts | 229° |
| 2026-05-01 14:35 | 48.50523 | 14.92718 | 34379 ft | 463 kts | 229° |
| 2026-05-01 14:35 | 48.48345 | 14.89134 | 33776 ft | 462 kts | 229° |
| 2026-05-01 14:35 | 48.46182 | 14.85571 | 33236 ft | 460 kts | 229° |
| 2026-05-01 14:35 | 48.44029 | 14.82024 | 32686 ft | 458 kts | 229° |
| 2026-05-01 14:36 | 48.41879 | 14.78488 | 32138 ft | 455 kts | 229° |
| 2026-05-01 14:36 | 48.39741 | 14.74979 | 31614 ft | 454 kts | 229° |
| 2026-05-01 14:36 | 48.37615 | 14.71488 | 31085 ft | 452 kts | 229° |
| 2026-05-01 14:36 | 48.35494 | 14.68007 | 30571 ft | 450 kts | 229° |
| 2026-05-01 14:37 | 48.33375 | 14.64544 | 30005 ft | 449 kts | 229° |
| 2026-05-01 14:37 | 48.31266 | 14.61111 | 29517 ft | 444 kts | 229° |
| 2026-05-01 14:37 | 48.29206 | 14.57756 | 29037 ft | 440 kts | 229° |
| 2026-05-01 14:37 | 48.27134 | 14.54383 | 28553 ft | 437 kts | 229° |
| 2026-05-01 14:38 | 48.25077 | 14.51044 | 28066 ft | 434 kts | 229° |
| 2026-05-01 14:38 | 48.23034 | 14.47729 | 27588 ft | 432 kts | 229° |
| 2026-05-01 14:38 | 48.21000 | 14.44427 | 27090 ft | 430 kts | 228° |
| 2026-05-01 14:38 | 48.18971 | 14.41136 | 26590 ft | 428 kts | 228° |
| 2026-05-01 14:39 | 48.16954 | 14.37862 | 26082 ft | 428 kts | 228° |
| 2026-05-01 14:39 | 48.14939 | 14.34593 | 25558 ft | 427 kts | 228° |
| 2026-05-01 14:39 | 48.12919 | 14.31322 | 25060 ft | 426 kts | 228° |
| 2026-05-01 14:39 | 48.10921 | 14.28099 | 24533 ft | 423 kts | 227° |
| 2026-05-01 14:40 | 48.08936 | 14.24906 | 23939 ft | 413 kts | 227° |
| 2026-05-01 14:40 | 48.07003 | 14.21807 | 23375 ft | 401 kts | 227° |
| 2026-05-01 14:40 | 48.05133 | 14.18812 | 22884 ft | 388 kts | 227° |
| 2026-05-01 14:40 | 48.03318 | 14.15900 | 22382 ft | 377 kts | 227° |
| 2026-05-01 14:41 | 48.01559 | 14.13080 | 21946 ft | 366 kts | 227° |
| 2026-05-01 14:41 | 48.00408 | 14.11238 | 21650 ft | 366 kts | 227° |
| 2026-05-01 14:41 | 47.98081 | 14.07512 | 21046 ft | 367 kts | 227° |
| 2026-05-01 14:41 | 47.96361 | 14.04763 | 20605 ft | 367 kts | 227° |
| 2026-05-01 14:42 | 47.95183 | 14.02882 | 20302 ft | 368 kts | 227° |
| 2026-05-01 14:42 | 47.92865 | 13.99185 | 19704 ft | 369 kts | 227° |
| 2026-05-01 14:42 | 47.91109 | 13.96388 | 19247 ft | 370 kts | 227° |
| 2026-05-01 14:42 | 47.89921 | 13.94496 | 18947 ft | 370 kts | 227° |
| 2026-05-01 14:43 | 47.87585 | 13.90779 | 18308 ft | 371 kts | 227° |
| 2026-05-01 14:43 | 47.86392 | 13.88881 | 18004 ft | 371 kts | 227° |
| 2026-05-01 14:43 | 47.84634 | 13.86088 | 17573 ft | 369 kts | 227° |
| 2026-05-01 14:43 | 47.82884 | 13.83311 | 17096 ft | 368 kts | 227° |
| 2026-05-01 14:44 | 47.81125 | 13.80528 | 16675 ft | 368 kts | 226° |
| 2026-05-01 14:44 | 47.77625 | 13.75008 | 15815 ft | 365 kts | 227° |
| 2026-05-01 14:44 | 47.75885 | 13.72265 | 15409 ft | 364 kts | 226° |
| 2026-05-01 14:45 | 47.74158 | 13.69539 | 15017 ft | 362 kts | 226° |
| 2026-05-01 14:45 | 47.70763 | 13.64181 | 14108 ft | 347 kts | 226° |
| 2026-05-01 14:45 | 47.69134 | 13.61618 | 13677 ft | 335 kts | 226° |
| 2026-05-01 14:46 | 47.67559 | 13.59143 | 13275 ft | 324 kts | 226° |
| 2026-05-01 14:46 | 47.64569 | 13.54466 | 12524 ft | 303 kts | 226° |
| 2026-05-01 14:46 | 47.63135 | 13.52225 | 12142 ft | 304 kts | 226° |
| 2026-05-01 14:47 | 47.61676 | 13.49945 | 11768 ft | 305 kts | 226° |
| 2026-05-01 14:47 | 47.60216 | 13.47661 | 11380 ft | 305 kts | 226° |
| 2026-05-01 14:47 | 47.58753 | 13.45370 | 10990 ft | 307 kts | 226° |
| 2026-05-01 14:48 | 47.55901 | 13.40506 | 9847 ft | 318 kts | 243° |
| 2026-05-01 14:48 | 47.55209 | 13.37475 | 9416 ft | 315 kts | 263° |
| 2026-05-01 14:48 | 47.55998 | 13.31352 | 8565 ft | 296 kts | 295° |
| 2026-05-01 14:49 | 47.57525 | 13.25963 | 7763 ft | 272 kts | 295° |
| 2026-05-01 14:49 | 47.59412 | 13.21252 | 6994 ft | 268 kts | 319° |
| 2026-05-01 14:50 | 47.61838 | 13.18347 | 6319 ft | 266 kts | 322° |
| 2026-05-01 14:50 | 47.65235 | 13.14623 | 5406 ft | 254 kts | 339° |
| 2026-05-01 14:51 | 47.66867 | 13.13746 | 4977 ft | 244 kts | 341° |
| 2026-05-01 14:51 | 47.69924 | 13.12116 | 4182 ft | 225 kts | 345° |
| 2026-05-01 14:52 | 47.72495 | 13.09853 | 3489 ft | 212 kts | 315° |
| 2026-05-01 14:52 | 47.73256 | 13.08049 | 3179 ft | 201 kts | 299° |
| 2026-05-01 14:52 | 47.74438 | 13.04678 | 2580 ft | 167 kts | 308° |
| 2026-05-01 14:53 | 47.75160 | 13.03430 | 2272 ft | 151 kts | 321° |
| 2026-05-01 14:53 | 47.75944 | 13.02504 | 1996 ft | 138 kts | 334° |
| 2026-05-01 14:53 | 47.76813 | 13.02000 | 1826 ft | 136 kts | 343° |
| 2026-05-01 14:53 | 47.77686 | 13.01439 | 1605 ft | 136 kts | 340° |
| 2026-05-01 14:54 | 47.78555 | 13.00882 | 1439 ft | 135 kts | 341° |
| 2026-05-01 14:54 | 47.79436 | 13.00331 | 1762 ft | 143 kts | 339° |
| 2026-05-01 14:54 | 47.80390 | 12.99710 | 2328 ft | 162 kts | 339° |
| 2026-05-01 14:54 | 47.81489 | 12.98968 | 2901 ft | 183 kts | 341° |
| 2026-05-01 14:55 | 47.82688 | 12.98081 | 3560 ft | 205 kts | 338° |
| 2026-05-01 14:55 | 47.84037 | 12.97129 | 4032 ft | 223 kts | 340° |
| 2026-05-01 14:55 | 47.85504 | 12.96223 | 4469 ft | 236 kts | 341° |
| 2026-05-01 14:55 | 47.87004 | 12.95321 | 4460 ft | 230 kts | 342° |
| 2026-05-01 14:56 | 47.88484 | 12.94434 | 4455 ft | 229 kts | 342° |
| 2026-05-01 14:56 | 47.89963 | 12.93542 | 4455 ft | 229 kts | 341° |
| 2026-05-01 14:56 | 47.91444 | 12.92641 | 4457 ft | 230 kts | 342° |
| 2026-05-01 14:56 | 47.92943 | 12.91865 | 4446 ft | 225 kts | 356° |
| 2026-05-01 14:57 | 47.94475 | 12.92006 | 4495 ft | 223 kts | 21° |
| 2026-05-01 14:57 | 47.96554 | 12.94923 | 4447 ft | 207 kts | 73° |
| 2026-05-01 14:57 | 47.96741 | 12.97044 | 4439 ft | 209 kts | 96° |
| 2026-05-01 14:58 | 47.96290 | 12.99104 | 4434 ft | 212 kts | 121° |
| 2026-05-01 14:58 | 47.95269 | 13.00681 | 4455 ft | 214 kts | 146° |
| 2026-05-01 14:58 | 47.93882 | 13.01521 | 4702 ft | 218 kts | 158° |
| 2026-05-01 14:58 | 47.92430 | 13.02214 | 4930 ft | 220 kts | 158° |
| 2026-05-01 14:59 | 47.90961 | 13.02909 | 4876 ft | 221 kts | 159° |
| 2026-05-01 14:59 | 47.89480 | 13.03609 | 4716 ft | 225 kts | 159° |
| 2026-05-01 14:59 | 47.87991 | 13.04315 | 4605 ft | 224 kts | 160° |
| 2026-05-01 14:59 | 47.86483 | 13.04809 | 4475 ft | 218 kts | 165° |
| 2026-05-01 15:00 | 47.83619 | 13.05668 | 4212 ft | 204 kts | 163° |
| 2026-05-01 15:00 | 47.82221 | 13.06095 | 3948 ft | 205 kts | 163° |
| 2026-05-01 15:00 | 47.80841 | 13.06518 | 3663 ft | 201 kts | 162° |
| 2026-05-01 15:01 | 47.79501 | 13.06926 | 3381 ft | 190 kts | 161° |
| 2026-05-01 15:01 | 47.78262 | 13.07299 | 3132 ft | 173 kts | 161° |
| 2026-05-01 15:01 | 47.77145 | 13.07615 | 2878 ft | 157 kts | 168° |
| 2026-05-01 15:01 | 47.76094 | 13.07282 | 2693 ft | 160 kts | 205° |
| 2026-05-01 15:02 | 47.75332 | 13.06094 | 2365 ft | 163 kts | 246° |
| 2026-05-01 15:02 | 47.75163 | 13.05031 | 2256 ft | 158 kts | 271° |
| 2026-05-01 15:02 | 47.75620 | 13.03081 | 2050 ft | 146 kts | 317° |
| 2026-05-01 15:02 | 47.76415 | 13.02265 | 1866 ft | 135 kts | 343° |
| 2026-05-01 15:03 | 47.77279 | 13.01722 | 1712 ft | 135 kts | 342° |
| 2026-05-01 15:03 | 47.78134 | 13.01152 | 1501 ft | 135 kts | 340° |
| 2026-05-01 15:03 | 47.78974 | 13.00625 | 1421 ft | 118 kts | 339° |
| 2026-05-01 15:03 | 47.79568 | 13.00246 | 1424 ft | 68 kts | 336° |
| 2026-05-01 15:04 | 47.79864 | 13.00059 | 1423 ft | 35 kts | 337° |
| 2026-05-01 15:04 | 47.80077 | 12.99931 | 1422 ft | 32 kts | 339° |
| 2026-05-01 15:04 | 47.80263 | 12.99803 | 1422 ft | 16 kts | 325° |
| 2026-05-01 15:04 | 47.80265 | 12.99651 | 1424 ft | 15 kts | 243° |
| 2026-05-01 15:05 | 47.80185 | 12.99593 | 1423 ft | 14 kts | 168° |
| 2026-05-01 15:05 | 47.80155 | 12.99610 | 1422 ft | 14 kts | 156° |
| 2026-05-01 15:05 | 47.80093 | 12.99650 | 1422 ft | 13 kts | 156° |
| 2026-05-01 15:05 | 47.80018 | 12.99699 | 1423 ft | 11 kts | 156° |
| 2026-05-01 15:06 | 47.79949 | 12.99741 | 1422 ft | 11 kts | 158° |
| 2026-05-01 15:06 | 47.79881 | 12.99783 | 1422 ft | 10 kts | 157° |
| 2026-05-01 15:06 | 47.79827 | 12.99816 | 1422 ft | 8 kts | 157° |
| 2026-05-01 15:06 | 47.79782 | 12.99845 | 1422 ft | 6 kts | 157° |
| 2026-05-01 15:07 | 47.79744 | 12.99869 | 1422 ft | 6 kts | 156° |
| 2026-05-01 15:07 | 47.79711 | 12.99891 | 1422 ft | 5 kts | 156° |
| 2026-05-01 15:07 | 47.79682 | 12.99909 | 1422 ft | 5 kts | 156° |
| 2026-05-01 15:07 | 47.79656 | 12.99926 | 1422 ft | 4 kts | 156° |
| 2026-05-01 15:08 | 47.79616 | 12.99952 | 1422 ft | 6 kts | 156° |
| 2026-05-01 15:08 | 47.79566 | 12.99983 | 1423 ft | 9 kts | 158° |
| 2026-05-01 15:08 | 47.79510 | 13.00017 | 1423 ft | 8 kts | 158° |
| 2026-05-01 15:08 | 47.79436 | 13.00063 | 1422 ft | 13 kts | 157° |
| 2026-05-01 15:09 | 47.79359 | 13.00057 | 1422 ft | 11 kts | 230° |
| 2026-05-01 15:09 | 47.79321 | 12.99962 | 1422 ft | 10 kts | 225° |
| 2026-05-01 15:09 | 47.79263 | 12.99960 | 1422 ft | 8 kts | 160° |
| 2026-05-01 15:09 | 47.79214 | 12.99990 | 1422 ft | 7 kts | 157° |
| 2026-05-01 15:10 | 47.79174 | 12.99999 | 1422 ft | 5 kts | 203° |
| 2026-05-01 15:10 | 47.79162 | 12.99938 | 1422 ft | 2 kts | 278° |
| 2026-05-01 15:10 | 47.79165 | 12.99918 | 1422 ft | 2 kts | 282° |
| 2026-05-01 15:11 | 47.79167 | 12.99901 | 1422 ft | 1 kts | 282° |
| 2026-05-01 15:11 | 47.79167 | 12.99897 | 1422 ft | 0 kts | 282° |